Time;durP1;ratioP1;P1;durP2;ratioP2;P2;SDS_P1;SDS_P2;PMS_P1;PMS_P2;Temp;Humidity;BMP_temperature;BMP_pressure;BME280_temperature;BME280_humidity;BME280_pressure;Samples;Min_cycle;Max_cycle;Signal;HPM_P1;HPM_P2
2021/12/23 05:02:26;;;;;;;32.37;17.97;;;-2.60;99.90;;;;;;5080334;23;20499;-70
2021/12/23 05:04:53;;;;;;;33.37;17.80;;;-2.60;99.90;;;;;;4975821;28;20543;-71
2021/12/23 05:07:21;;;;;;;36.93;20.13;;;-2.60;99.90;;;;;;4975665;28;21049;-70
2021/12/23 05:09:48;;;;;;;38.47;18.33;;;-2.70;99.90;;;;;;4975652;28;20458;-70
2021/12/23 05:12:15;;;;;;;38.00;20.20;;;-2.60;99.90;;;;;;4959191;28;21028;-71
2021/12/23 05:14:42;;;;;;;39.40;20.20;;;-2.60;99.90;;;;;;4956840;29;20992;-70
2021/12/23 05:17:09;;;;;;;41.30;20.00;;;-2.70;99.90;;;;;;4956666;29;20457;-69
2021/12/23 05:19:37;;;;;;;39.83;20.57;;;-2.60;99.90;;;;;;4956001;29;20488;-69
2021/12/23 05:22:05;;;;;;;40.23;18.90;;;-2.60;99.90;;;;;;4956265;28;20544;-69
2021/12/23 05:24:32;;;;;;;39.87;20.43;;;-2.60;99.90;;;;;;4956119;29;20560;-69
2021/12/23 05:26:59;;;;;;;41.33;21.47;;;-2.60;99.90;;;;;;4956008;29;20476;-71
2021/12/23 05:29:26;;;;;;;45.77;22.40;;;-2.50;99.90;;;;;;4956080;29;20578;-71
2021/12/23 05:31:53;;;;;;;39.90;21.20;;;-2.60;99.90;;;;;;4956258;28;20552;-69
2021/12/23 05:34:20;;;;;;;43.30;21.10;;;-2.60;99.90;;;;;;4956117;29;20449;-71
2021/12/23 05:36:48;;;;;;;40.00;20.57;;;-2.70;99.90;;;;;;4956041;29;21044;-70
2021/12/23 05:39:15;;;;;;;40.80;21.40;;;-2.70;99.90;;;;;;4955787;29;21012;-71
2021/12/23 05:41:42;;;;;;;36.70;18.53;;;-2.70;99.90;;;;;;4955699;28;20477;-70
2021/12/23 05:44:09;;;;;;;42.10;20.30;;;-2.70;99.90;;;;;;4955356;28;20543;-71
2021/12/23 05:46:36;;;;;;;40.73;21.17;;;-2.70;99.90;;;;;;4955960;29;20535;-72
2021/12/23 05:49:02;;;;;;;87.70;22.10;;;-2.60;99.90;;;;;;4955598;29;20568;-71
2021/12/23 05:51:29;;;;;;;44.77;22.20;;;-2.60;99.90;;;;;;4955281;28;20479;-71
2021/12/23 05:53:58;;;;;;;57.07;27.47;;;-2.60;99.90;;;;;;4955299;29;20539;-71
2021/12/23 05:56:25;;;;;;;40.00;21.70;;;-2.60;99.90;;;;;;4955507;29;20543;-70
2021/12/23 05:58:52;;;;;;;46.47;20.67;;;-2.60;99.90;;;;;;4955621;29;20540;-71
2021/12/23 06:01:19;;;;;;;40.13;21.07;;;-2.60;99.90;;;;;;4955531;28;20484;-70
2021/12/23 06:03:46;;;;;;;37.13;20.33;;;-2.60;99.90;;;;;;4955522;29;20541;-71
2021/12/23 06:06:14;;;;;;;48.03;22.07;;;-2.60;99.90;;;;;;4955960;29;20452;-69
2021/12/23 06:08:41;;;;;;;43.00;20.77;;;-2.60;99.90;;;;;;4954867;29;20496;-72
2021/12/23 06:11:10;;;;;;;40.43;21.00;;;-2.60;99.90;;;;;;4955415;28;20540;-69
2021/12/23 06:13:37;;;;;;;40.37;19.77;;;-2.70;99.90;;;;;;4955542;28;20484;-71
2021/12/23 06:16:04;;;;;;;43.93;20.87;;;-2.70;99.90;;;;;;4955023;29;20897;-69
2021/12/23 06:18:31;;;;;;;52.33;20.93;;;-2.70;99.90;;;;;;4955241;29;20544;-69
2021/12/23 06:20:58;;;;;;;46.43;23.73;;;-2.70;99.90;;;;;;4955142;28;20914;-69
2021/12/23 06:23:25;;;;;;;45.37;22.37;;;-2.70;99.90;;;;;;4955087;28;20488;-68
2021/12/23 06:25:52;;;;;;;44.40;22.10;;;-2.60;99.90;;;;;;4955337;29;20452;-68
2021/12/23 06:28:21;;;;;;;51.37;22.70;;;-2.60;99.90;;;;;;4954963;29;20497;-71
2021/12/23 06:30:48;;;;;;;37.93;20.27;;;-2.70;99.90;;;;;;4954606;28;20561;-69
2021/12/23 06:33:15;;;;;;;42.30;21.33;;;-2.70;99.90;;;;;;4954973;29;20453;-69
2021/12/23 06:35:42;;;;;;;41.90;21.10;;;-2.70;99.90;;;;;;4954755;29;20457;-69
2021/12/23 06:38:10;;;;;;;41.23;20.13;;;-2.70;99.90;;;;;;4954961;29;20544;-69
2021/12/23 06:40:38;;;;;;;37.97;18.33;;;-2.70;99.90;;;;;;4954681;28;21072;-69
2021/12/23 06:43:05;;;;;;;48.63;20.20;;;-2.70;99.90;;;;;;4954908;28;20915;-69
2021/12/23 06:45:34;;;;;;;46.33;21.00;;;-2.70;99.90;;;;;;4954735;29;20551;-70
2021/12/23 06:48:01;;;;;;;41.23;21.00;;;-2.70;99.90;;;;;;4954719;29;20536;-69
2021/12/23 06:50:27;;;;;;;48.17;22.20;;;-2.70;99.90;;;;;;4954222;28;20533;-69
2021/12/23 06:52:55;;;;;;;60.07;24.73;;;-2.60;99.90;;;;;;4954679;28;20469;-70
2021/12/23 06:55:21;;;;;;;48.00;22.97;;;-2.70;99.90;;;;;;4954751;28;20463;-70
2021/12/23 06:57:53;;;;;;;43.03;22.60;;;-2.70;99.90;;;;;;4954546;29;20503;-70
2021/12/23 07:00:20;;;;;;;40.43;21.77;;;-2.70;99.90;;;;;;4954435;28;20496;-71
2021/12/23 07:02:49;;;;;;;38.90;20.83;;;-2.60;99.90;;;;;;4954307;29;20484;-70
2021/12/23 07:05:17;;;;;;;42.57;22.97;;;-2.60;99.90;;;;;;4954654;29;20519;-72
2021/12/23 07:07:53;;;;;;;50.10;23.70;;;-2.60;99.90;;;;;;4954533;29;20495;-70
2021/12/23 07:10:21;;;;;;;47.30;21.97;;;-2.60;99.90;;;;;;4954236;28;20452;-70
2021/12/23 07:12:48;;;;;;;46.13;21.40;;;-2.60;99.90;;;;;;4954348;29;20544;-71
2021/12/23 07:15:15;;;;;;;42.50;21.23;;;-2.60;99.90;;;;;;4954229;29;20904;-70
2021/12/23 07:17:42;;;;;;;41.97;23.07;;;-2.60;99.90;;;;;;4954302;29;20492;-71
2021/12/23 07:20:14;;;;;;;47.07;22.37;;;-2.60;99.90;;;;;;4954240;29;20476;-70
2021/12/23 07:22:41;;;;;;;42.83;21.70;;;-2.50;99.90;;;;;;4954140;29;20448;-70
2021/12/23 07:25:09;;;;;;;44.83;22.47;;;-2.50;99.90;;;;;;4954392;28;20449;-70
2021/12/23 07:27:36;;;;;;;52.57;23.53;;;-2.50;99.90;;;;;;4954106;29;20889;-70
2021/12/23 07:30:05;;;;;;;49.57;22.07;;;-2.50;99.90;;;;;;4953696;29;20575;-73
2021/12/23 07:32:32;;;;;;;44.80;21.60;;;-2.60;99.90;;;;;;4954077;28;20476;-70
2021/12/23 07:34:59;;;;;;;45.07;22.40;;;-2.60;99.90;;;;;;4954339;29;20503;-70
2021/12/23 07:37:27;;;;;;;39.97;20.57;;;-2.50;99.90;;;;;;4953988;29;21016;-70
2021/12/23 07:39:55;;;;;;;44.27;21.63;;;-2.60;99.90;;;;;;4953675;29;20460;-70
2021/12/23 07:42:24;;;;;;;44.87;22.40;;;-2.50;99.90;;;;;;4953814;28;20996;-70
2021/12/23 07:44:52;;;;;;;41.47;20.60;;;-2.50;99.90;;;;;;4953930;28;20492;-70
2021/12/23 07:47:19;;;;;;;44.97;20.30;;;-2.50;99.90;;;;;;4954102;28;20463;-70
2021/12/23 07:49:46;;;;;;;42.80;20.90;;;-2.60;99.90;;;;;;4953485;29;20493;-69
2021/12/23 07:52:14;;;;;;;45.13;21.50;;;-2.50;99.90;;;;;;4953634;28;20559;-71
2021/12/23 07:54:43;;;;;;;44.80;23.73;;;-2.50;99.90;;;;;;4953766;29;20540;-70
2021/12/23 07:57:10;;;;;;;47.53;23.60;;;-2.40;99.90;;;;;;4953644;28;20867;-70
2021/12/23 07:59:37;;;;;;;42.10;21.77;;;-2.40;99.90;;;;;;4953706;29;20551;-70
2021/12/23 08:02:04;;;;;;;44.07;22.80;;;-2.40;99.90;;;;;;4953541;28;20563;-70
2021/12/23 08:04:33;;;;;;;46.30;22.80;;;-2.40;99.90;;;;;;4953789;29;20531;-69
2021/12/23 08:07:02;;;;;;;50.60;24.67;;;-2.40;99.90;;;;;;4953883;28;20467;-71
2021/12/23 08:09:30;;;;;;;53.57;26.73;;;-2.40;99.90;;;;;;4957175;29;20488;-69
2021/12/23 08:12:00;;;;;;;47.27;25.67;;;-2.40;99.90;;;;;;4957768;28;20484;-69
2021/12/23 08:14:27;;;;;;;52.63;26.00;;;-2.40;99.90;;;;;;4957923;29;20543;-70
2021/12/23 08:16:54;;;;;;;54.97;26.80;;;-2.50;99.90;;;;;;4957707;29;20531;-70
2021/12/23 08:19:21;;;;;;;52.30;27.03;;;-2.50;99.90;;;;;;4952255;29;20485;-70
2021/12/23 08:21:48;;;;;;;48.63;25.10;;;-2.40;99.90;;;;;;4957285;29;20551;-70
2021/12/23 08:24:15;;;;;;;48.53;26.63;;;-2.40;99.90;;;;;;4960176;29;21013;-70
2021/12/23 08:26:50;;;;;;;56.47;28.17;;;-2.40;99.90;;;;;;4957892;28;20908;-70
2021/12/23 08:29:19;;;;;;;62.30;28.47;;;-2.30;99.90;;;;;;4956856;29;20503;-70
2021/12/23 08:31:46;;;;;;;61.93;29.47;;;-2.20;99.90;;;;;;4957154;29;20486;-70
2021/12/23 08:34:13;;;;;;;60.97;30.23;;;-2.20;99.90;;;;;;4957250;29;20475;-70
2021/12/23 08:36:40;;;;;;;59.10;29.93;;;-2.20;99.90;;;;;;4956882;29;20549;-70
2021/12/23 08:39:07;;;;;;;59.65;29.88;;;-2.10;99.90;;;;;;4956788;29;20514;-70
2021/12/23 08:41:34;;;;;;;63.00;35.72;;;-2.10;99.90;;;;;;4955914;29;20523;-70
2021/12/23 08:44:01;;;;;;;62.20;31.20;;;-1.80;99.90;;;;;;4957096;29;20209;-70
2021/12/23 08:46:29;;;;;;;70.27;34.20;;;-1.70;99.90;;;;;;4957032;29;20545;-70
2021/12/23 08:48:56;;;;;;;53.27;29.57;;;-1.70;99.90;;;;;;4956405;29;21090;-70
2021/12/23 08:51:23;;;;;;;55.63;28.77;;;-1.60;99.90;;;;;;4956763;29;20567;-70
2021/12/23 08:53:50;;;;;;;62.03;30.93;;;-1.70;99.90;;;;;;4956840;29;20453;-70
2021/12/23 08:56:17;;;;;;;61.63;30.17;;;-1.70;99.90;;;;;;4956902;29;20463;-70
2021/12/23 08:58:44;;;;;;;54.07;28.10;;;-1.80;99.90;;;;;;4956524;29;20459;-70
2021/12/23 09:01:11;;;;;;;56.30;28.50;;;-1.70;99.90;;;;;;4956290;29;20567;-70
2021/12/23 09:03:39;;;;;;;56.67;28.70;;;-1.70;99.90;;;;;;4953698;29;21008;-70
2021/12/23 09:06:06;;;;;;;61.10;27.43;;;-1.60;99.90;;;;;;4940208;29;20537;-67
2021/12/23 09:08:33;;;;;;;64.40;30.20;;;-1.60;99.90;;;;;;4937312;29;20544;-71
2021/12/23 09:11:01;;;;;;;62.60;30.50;;;-1.50;99.90;;;;;;4937684;29;20552;-75
2021/12/23 09:13:29;;;;;;;60.03;30.00;;;-1.50;99.90;;;;;;4937319;29;20485;-73
2021/12/23 09:15:56;;;;;;;59.50;29.87;;;-1.50;99.90;;;;;;4937369;29;20453;-75
2021/12/23 09:18:23;;;;;;;57.83;29.37;;;-1.50;99.90;;;;;;4936536;29;20576;-72
2021/12/23 09:20:53;;;;;;;61.13;28.73;;;-1.40;99.90;;;;;;4936597;29;20556;-74
2021/12/23 09:23:20;;;;;;;58.27;28.57;;;-1.30;99.90;;;;;;4937292;29;20536;-71
2021/12/23 09:25:48;;;;;;;66.60;28.03;;;-1.30;99.90;;;;;;4937353;29;20564;-72
2021/12/23 09:28:31;;;;;;;60.47;29.43;;;-1.20;99.90;;;;;;4937311;29;20458;-73
2021/12/23 09:33:43;;;;;;;64.17;30.80;;;-1.10;99.90;;;;;;4937249;29;20445;-73
2021/12/23 09:36:13;;;;;;;72.40;35.10;;;-1.00;99.90;;;;;;4937036;29;20540;-74
2021/12/23 09:38:40;;;;;;;63.33;31.53;;;-0.90;99.90;;;;;;4936978;29;20493;-74
2021/12/23 09:41:10;;;;;;;63.27;32.53;;;-0.80;99.90;;;;;;4944151;29;20497;-73
2021/12/23 09:43:39;;;;;;;58.53;30.53;;;-0.80;99.90;;;;;;4944322;29;20537;-74
2021/12/23 09:46:06;;;;;;;63.20;31.80;;;-0.80;99.90;;;;;;4936799;29;20468;-74
2021/12/23 09:48:34;;;;;;;62.77;32.03;;;-0.70;99.90;;;;;;4936784;29;20545;-79
2021/12/23 09:51:04;;;;;;;60.73;30.13;;;-0.60;99.90;;;;;;4936550;29;20560;-70
2021/12/23 09:53:34;;;;;;;56.20;30.70;;;-0.60;99.90;;;;;;4936683;29;20536;-71
2021/12/23 09:56:02;;;;;;;76.73;37.57;;;-0.50;99.90;;;;;;4936729;29;20544;-71
2021/12/23 09:58:29;;;;;;;78.63;39.17;;;-0.50;99.90;;;;;;4936671;29;20504;-69
2021/12/23 10:00:58;;;;;;;81.43;40.80;;;-0.40;99.90;;;;;;4936044;29;21126;-70
2021/12/23 10:03:26;;;;;;;92.00;38.97;;;-0.40;99.90;;;;;;4936499;29;20540;-70
2021/12/23 10:05:54;;;;;;;74.43;37.13;;;-0.30;99.90;;;;;;4936399;29;20528;-70
2021/12/23 10:08:21;;;;;;;63.80;33.03;;;-0.30;99.90;;;;;;4936293;29;20482;-70
2021/12/23 10:10:53;;;;;;;75.37;37.40;;;-0.20;99.90;;;;;;4936182;29;20556;-70
2021/12/23 10:38:36;;;;;;;65.17;33.27;;;0.40;99.90;;;;;;4935771;29;20497;-70
2021/12/23 10:41:07;;;;;;;71.07;32.70;;;0.50;99.90;;;;;;4935495;29;20473;-71
2021/12/23 10:43:41;;;;;;;69.83;36.03;;;0.50;99.90;;;;;;4935375;29;20479;-70
2021/12/23 10:46:12;;;;;;;64.77;31.33;;;0.50;99.90;;;;;;4935603;29;21126;-71
2021/12/23 10:48:51;;;;;;;64.63;34.20;;;0.60;99.90;;;;;;4935582;29;20540;-70
2021/12/23 10:51:20;;;;;;;62.50;30.33;;;0.70;99.90;;;;;;4935412;29;20497;-70
2021/12/23 10:54:16;;;;;;;54.90;29.53;;;0.70;99.90;;;;;;4935442;29;20521;-71
2021/12/23 10:59:30;;;;;;;50.97;26.20;;;0.90;99.90;;;;;;4935181;29;20823;-71
2021/12/23 11:02:17;;;;;;;52.33;26.43;;;0.90;99.90;;;;;;4935509;29;20533;-71
2021/12/23 11:05:03;;;;;;;43.50;25.87;;;0.90;99.90;;;;;;4935191;29;20472;-71
2021/12/23 11:07:54;;;;;;;53.00;27.30;;;0.90;99.90;;;;;;4935195;29;20882;-70
2021/12/23 11:10:37;;;;;;;53.93;27.20;;;0.90;99.90;;;;;;4934799;29;20552;-71
2021/12/23 11:36:05;;;;;;;45.33;23.83;;;1.40;99.90;;;;;;4934681;29;20437;-71
2021/12/23 11:38:40;;;;;;;47.30;25.77;;;1.40;99.90;;;;;;4934779;29;20457;-71
2021/12/23 11:41:19;;;;;;;42.37;23.60;;;1.50;99.90;;;;;;4934508;29;20481;-70
2021/12/23 11:43:49;;;;;;;47.47;26.17;;;1.60;99.90;;;;;;4934019;29;20844;-71
2021/12/23 11:46:18;;;;;;;47.67;25.43;;;1.60;99.90;;;;;;4934788;29;20458;-72
2021/12/23 11:48:51;;;;;;;57.40;24.43;;;1.80;99.90;;;;;;4934764;29;20836;-72
2021/12/23 11:51:21;;;;;;;54.43;26.67;;;1.80;99.90;;;;;;4934690;29;20490;-71
2021/12/23 11:53:49;;;;;;;55.03;25.60;;;1.80;99.90;;;;;;4934758;29;20477;-72
2021/12/23 11:56:18;;;;;;;53.83;26.67;;;1.80;99.90;;;;;;4934484;29;20465;-72
2021/12/23 11:58:47;;;;;;;49.83;25.30;;;1.80;99.90;;;;;;4934264;29;20564;-72
2021/12/23 12:01:22;;;;;;;44.67;24.90;;;1.90;99.90;;;;;;4934673;29;20501;-72
2021/12/23 12:03:57;;;;;;;52.10;25.47;;;2.00;99.90;;;;;;4934510;29;20977;-72
2021/12/23 12:06:26;;;;;;;52.40;25.43;;;2.00;99.90;;;;;;4934510;29;20497;-73
2021/12/23 12:08:55;;;;;;;45.90;25.10;;;2.20;99.90;;;;;;4934221;29;20544;-72
2021/12/23 12:11:24;;;;;;;52.13;25.13;;;2.20;99.90;;;;;;4933233;29;20497;-73
2021/12/23 12:13:51;;;;;;;45.17;23.70;;;2.20;99.90;;;;;;4915214;29;20569;-72
2021/12/23 12:16:34;;;;;;;49.73;25.73;;;2.30;99.90;;;;;;4915643;29;20486;-73
2021/12/23 12:19:04;;;;;;;51.77;26.20;;;2.30;99.90;;;;;;4914528;29;21093;-71
2021/12/23 12:21:34;;;;;;;47.70;25.00;;;2.30;99.90;;;;;;4915541;29;20485;-74
2021/12/23 12:24:16;;;;;;;47.70;24.73;;;2.40;99.90;;;;;;4933246;29;20469;-73
2021/12/23 12:26:56;;;;;;;50.83;25.00;;;2.40;99.90;;;;;;4934135;29;20494;-73
2021/12/23 12:29:32;;;;;;;54.07;24.43;;;2.40;99.90;;;;;;4933718;29;20460;-72
2021/12/23 12:31:59;;;;;;;42.23;23.70;;;2.50;99.90;;;;;;4933686;29;20544;-72
2021/12/23 12:34:36;;;;;;;45.70;25.10;;;2.60;99.90;;;;;;4933875;29;20556;-73
2021/12/23 12:37:05;;;;;;;47.13;25.67;;;2.60;99.90;;;;;;4934077;29;20503;-72
2021/12/23 12:39:34;;;;;;;49.13;25.23;;;2.60;99.90;;;;;;4933692;29;20460;-72
2021/12/23 12:42:05;;;;;;;46.13;25.53;;;2.70;99.90;;;;;;4933749;29;20545;-73
2021/12/23 12:45:00;;;;;;;63.23;30.03;;;2.70;99.90;;;;;;4933672;29;20557;-73
2021/12/23 12:47:31;;;;;;;52.40;26.60;;;2.80;99.90;;;;;;4932828;29;20520;-72
2021/12/23 12:50:12;;;;;;;51.83;27.37;;;2.80;99.90;;;;;;4932364;29;20501;-72
2021/12/23 12:52:43;;;;;;;50.80;27.63;;;2.80;99.90;;;;;;4929165;29;20533;-72
2021/12/23 12:55:13;;;;;;;54.17;28.67;;;2.80;99.90;;;;;;4932647;29;20478;-73
2021/12/23 12:57:43;;;;;;;47.77;27.57;;;2.70;99.90;;;;;;4928521;29;20453;-73
2021/12/23 13:00:28;;;;;;;47.83;26.10;;;2.70;99.90;;;;;;4928352;29;20462;-73
2021/12/23 13:02:57;;;;;;;45.87;26.60;;;2.70;99.90;;;;;;4936271;29;20460;-73
2021/12/23 13:05:36;;;;;;;49.53;26.73;;;2.80;99.90;;;;;;4935916;29;20653;-73
2021/12/23 13:08:16;;;;;;;47.43;24.60;;;2.80;99.90;;;;;;4935458;29;21005;-73
2021/12/23 13:10:47;;;;;;;42.20;24.17;;;2.90;99.90;;;;;;4935920;29;20489;-73
2021/12/23 13:13:26;;;;;;;46.60;25.23;;;2.90;99.90;;;;;;4935749;29;20457;-73
2021/12/23 13:15:58;;;;;;;53.47;26.80;;;3.00;99.90;;;;;;4935781;29;20552;-74
2021/12/23 13:18:26;;;;;;;45.73;23.50;;;3.00;99.90;;;;;;4935649;29;20461;-73
2021/12/23 13:20:55;;;;;;;33.60;19.10;;;3.00;99.90;;;;;;4935800;29;20540;-73
2021/12/23 13:23:29;;;;;;;25.67;16.00;;;3.00;99.90;;;;;;4935737;29;20505;-73
2021/12/23 13:25:58;;;;;;;35.97;20.53;;;3.00;99.90;;;;;;4936054;29;20829;-73
2021/12/23 13:28:38;;;;;;;50.43;25.10;;;3.10;99.90;;;;;;4935584;29;20601;-73
2021/12/23 13:31:08;;;;;;;56.00;28.07;;;3.10;99.90;;;;;;4935729;29;20589;-73
2021/12/23 13:33:43;;;;;;;61.20;26.60;;;3.10;99.90;;;;;;4935736;29;20565;-73
2021/12/23 13:36:22;;;;;;;54.10;28.70;;;3.10;99.90;;;;;;4935163;29;20520;-73
2021/12/23 13:38:52;;;;;;;52.73;26.60;;;3.00;99.90;;;;;;4935348;29;20468;-73
2021/12/23 13:41:25;;;;;;;56.60;25.10;;;3.00;99.90;;;;;;4935665;29;21187;-73
2021/12/23 13:43:53;;;;;;;51.47;27.13;;;3.00;99.90;;;;;;4935666;29;20485;-73
2021/12/23 13:46:20;;;;;;;52.27;25.17;;;3.00;99.90;;;;;;4935115;29;20544;-73
2021/12/23 13:48:52;;;;;;;51.00;26.00;;;3.00;99.90;;;;;;4935424;29;20534;-73
2021/12/23 13:51:24;;;;;;;58.20;26.50;;;3.10;99.90;;;;;;4935114;29;20608;-73
2021/12/23 13:54:02;;;;;;;63.87;34.10;;;3.00;99.90;;;;;;4935519;29;20473;-73
2021/12/23 13:56:32;;;;;;;55.87;28.87;;;3.10;99.90;;;;;;4935143;29;20496;-73
2021/12/23 13:59:10;;;;;;;36.30;21.30;;;3.10;99.90;;;;;;4935046;29;20461;-73
2021/12/23 14:01:52;;;;;;;43.30;22.93;;;3.10;99.90;;;;;;4935961;29;20482;-74
2021/12/23 14:04:34;;;;;;;46.27;24.87;;;3.10;99.90;;;;;;4935238;29;20634;-73
2021/12/23 14:07:09;;;;;;;48.53;25.37;;;3.20;99.90;;;;;;4935733;29;21006;-72
2021/12/23 14:09:38;;;;;;;40.60;22.83;;;3.20;99.90;;;;;;4935889;29;20500;-73
2021/12/23 14:12:06;;;;;;;44.10;22.90;;;3.30;99.90;;;;;;4935786;29;20588;-73
2021/12/23 14:14:33;;;;;;;42.53;24.07;;;3.30;99.90;;;;;;4935235;29;20843;-74
2021/12/23 14:17:00;;;;;;;43.57;25.60;;;3.30;99.90;;;;;;4936178;29;20458;-74
2021/12/23 14:19:40;;;;;;;44.83;25.07;;;3.40;99.90;;;;;;4935462;29;20481;-73
2021/12/23 14:24:56;;;;;;;52.70;27.20;;;3.40;99.90;;;;;;4935599;29;20477;-73
2021/12/23 14:27:23;;;;;;;46.37;26.80;;;3.40;99.90;;;;;;4935698;29;20537;-71
2021/12/23 14:30:01;;;;;;;58.20;30.37;;;3.30;99.90;;;;;;4935307;29;20545;-68
2021/12/23 14:32:28;;;;;;;44.60;24.53;;;3.30;99.90;;;;;;4936028;29;20544;-69
2021/12/23 14:34:55;;;;;;;39.63;21.13;;;3.20;99.90;;;;;;4935779;29;20560;-74
2021/12/23 14:37:23;;;;;;;30.40;19.00;;;3.20;99.90;;;;;;4931866;29;20875;-75
2021/12/23 14:39:56;;;;;;;24.40;13.43;;;3.30;99.90;;;;;;4916480;29;20541;-75
2021/12/23 14:42:28;;;;;;;30.10;17.50;;;3.30;99.90;;;;;;4916597;29;20546;-73
2021/12/23 14:45:02;;;;;;;41.93;22.57;;;3.40;99.90;;;;;;4933260;29;20478;-76
2021/12/23 14:47:32;;;;;;;52.30;28.77;;;3.30;99.90;;;;;;4926500;29;21000;-73
2021/12/23 14:50:14;;;;;;;42.67;24.73;;;3.30;99.90;;;;;;4926837;29;20465;-72
2021/12/23 14:52:45;;;;;;;41.90;24.07;;;3.20;99.90;;;;;;4916691;29;20462;-72
2021/12/23 14:55:14;;;;;;;56.20;26.37;;;3.20;99.90;;;;;;4931092;29;20480;-72
2021/12/23 14:57:49;;;;;;;36.40;21.50;;;3.20;99.90;;;;;;4935378;29;20900;-73
2021/12/23 15:00:18;;;;;;;39.10;22.53;;;3.20;99.90;;;;;;4932009;29;20541;-73
2021/12/23 15:02:46;;;;;;;43.50;24.40;;;3.20;99.90;;;;;;4935431;29;20536;-72
2021/12/23 15:05:15;;;;;;;45.00;26.30;;;3.20;99.90;;;;;;4935359;29;20509;-72
2021/12/23 15:07:49;;;;;;;43.57;23.17;;;3.20;99.90;;;;;;4935119;29;20472;-72
2021/12/23 15:10:27;;;;;;;38.20;23.57;;;3.20;99.90;;;;;;4934864;29;20492;-72
2021/12/23 15:12:57;;;;;;;42.87;26.10;;;3.20;99.90;;;;;;4934758;29;20485;-71
2021/12/23 15:15:31;;;;;;;46.60;26.80;;;3.20;99.90;;;;;;4934552;29;20512;-76
2021/12/23 15:18:07;;;;;;;50.50;26.57;;;3.30;99.90;;;;;;4935188;29;20540;-73
2021/12/23 15:20:33;;;;;;;57.13;28.17;;;3.30;99.90;;;;;;4934816;29;20555;-72
2021/12/23 15:23:02;;;;;;;45.60;27.90;;;3.40;99.90;;;;;;4926300;29;21030;-72
2021/12/23 15:25:40;;;;;;;54.73;30.13;;;3.40;99.90;;;;;;4931297;29;20537;-72
2021/12/23 15:28:11;;;;;;;56.90;27.73;;;3.40;99.90;;;;;;4923742;29;20486;-72
2021/12/23 15:30:39;;;;;;;49.47;27.47;;;3.40;99.90;;;;;;4933192;29;20525;-74
2021/12/23 15:33:06;;;;;;;45.47;26.20;;;3.40;99.90;;;;;;4933998;29;20469;-73
2021/12/23 15:35:35;;;;;;;47.25;29.63;;;3.40;99.90;;;;;;4933466;29;20532;-75
2021/12/23 15:38:04;;;;;;;45.23;26.90;;;3.60;99.90;;;;;;4934124;29;20253;-73
2021/12/23 15:40:34;;;;;;;44.13;26.80;;;3.70;99.90;;;;;;4925523;29;20538;-71
2021/12/23 15:43:04;;;;;;;47.90;25.47;;;3.70;99.90;;;;;;4927999;29;20482;-72
2021/12/23 15:45:34;;;;;;;38.60;23.60;;;3.70;99.90;;;;;;4919006;29;20541;-72
2021/12/23 15:48:02;;;;;;;42.47;25.40;;;3.70;99.90;;;;;;4933836;29;20537;-72
2021/12/23 15:50:30;;;;;;;43.70;24.60;;;3.70;99.90;;;;;;4924482;29;20465;-72
2021/12/23 15:53:00;;;;;;;43.20;22.70;;;3.70;99.90;;;;;;4931482;29;20454;-72
2021/12/23 15:55:30;;;;;;;44.80;25.30;;;3.70;99.90;;;;;;4933688;29;20455;-72
2021/12/23 15:57:57;;;;;;;43.03;27.20;;;3.70;99.90;;;;;;4934032;29;21115;-72
2021/12/23 16:00:25;;;;;;;36.57;22.50;;;3.70;99.90;;;;;;4928127;29;20536;-72
2021/12/23 16:02:52;;;;;;;34.85;21.38;;;3.70;99.90;;;;;;4924652;29;20517;-72
2021/12/23 16:08:06;;;;;;;38.53;21.67;;;3.70;99.90;;;;;;4925165;29;20945;-73
2021/12/23 16:10:34;;;;;;;40.37;23.30;;;3.70;99.90;;;;;;4929989;29;20533;-73
2021/12/23 16:13:01;;;;;;;39.60;21.93;;;3.70;99.90;;;;;;4927540;29;20549;-73
2021/12/23 16:15:28;;;;;;;44.50;26.37;;;3.60;99.90;;;;;;4926612;29;20489;-73
2021/12/23 16:17:55;;;;;;;39.30;21.00;;;3.60;99.90;;;;;;4924171;29;20533;-73
2021/12/23 16:20:23;;;;;;;38.07;23.03;;;3.60;99.90;;;;;;4924277;29;20532;-73
2021/12/23 16:22:51;;;;;;;38.80;23.00;;;3.70;99.90;;;;;;4919945;29;20501;-74
2021/12/23 16:25:18;;;;;;;39.23;24.03;;;3.70;99.90;;;;;;4930560;29;20532;-75
2021/12/23 16:27:46;;;;;;;38.27;24.30;;;3.70;99.90;;;;;;4918656;29;20548;-76
2021/12/23 16:30:19;;;;;;;46.00;24.70;;;3.70;99.90;;;;;;4936964;29;20489;-72
2021/12/23 16:32:49;;;;;;;40.43;23.80;;;3.70;99.90;;;;;;4934488;29;20497;-71
2021/12/23 16:35:18;;;;;;;42.03;23.43;;;3.70;99.90;;;;;;4936382;29;20502;-72
2021/12/23 16:37:47;;;;;;;36.43;22.93;;;3.70;99.90;;;;;;4934494;29;20504;-73
2021/12/23 16:40:17;;;;;;;37.47;23.70;;;3.70;99.90;;;;;;4937030;29;20540;-72
2021/12/23 16:42:45;;;;;;;41.83;24.80;;;3.70;99.90;;;;;;4924755;29;20479;-73
2021/12/23 16:45:15;;;;;;;43.13;25.07;;;3.70;99.90;;;;;;4923885;29;20775;-73
2021/12/23 16:47:42;;;;;;;49.27;27.20;;;3.70;99.90;;;;;;4919043;29;20486;-73
2021/12/23 16:50:11;;;;;;;51.30;31.30;;;3.80;99.90;;;;;;4918690;29;20475;-72
2021/12/23 16:52:40;;;;;;;56.67;35.17;;;3.70;99.90;;;;;;4918638;29;20561;-72
2021/12/23 16:55:13;;;;;;;51.93;31.27;;;3.70;99.90;;;;;;4923182;29;20986;-72
2021/12/23 16:57:41;;;;;;;54.00;31.02;;;3.70;99.90;;;;;;4918688;29;20451;-72
2021/12/23 17:00:13;;;;;;;50.20;29.17;;;3.70;99.90;;;;;;4922463;29;20286;-72
2021/12/23 17:02:42;;;;;;;49.70;29.70;;;3.80;99.90;;;;;;4918492;29;20451;-72
2021/12/23 17:05:11;;;;;;;51.50;30.07;;;3.80;99.90;;;;;;4918731;29;20573;-73
2021/12/23 17:07:40;;;;;;;62.90;38.00;;;3.80;99.90;;;;;;4918512;29;21065;-72
2021/12/23 17:10:09;;;;;;;61.40;37.53;;;3.80;99.90;;;;;;4918397;29;20450;-72
2021/12/23 17:12:36;;;;;;;60.27;37.27;;;3.80;99.90;;;;;;4917907;29;20533;-72
2021/12/23 17:15:03;;;;;;;63.10;36.00;;;3.80;99.90;;;;;;4925797;29;20560;-72
2021/12/23 17:17:34;;;;;;;58.37;36.87;;;3.70;99.90;;;;;;4933855;29;20504;-73
2021/12/23 17:20:04;;;;;;;57.77;38.60;;;3.70;99.90;;;;;;4931601;29;20871;-72
2021/12/23 17:22:33;;;;;;;65.20;41.03;;;3.70;99.90;;;;;;4933113;29;20450;-72
2021/12/23 17:25:01;;;;;;;69.70;42.03;;;3.70;99.90;;;;;;4932560;29;20478;-72
2021/12/23 17:27:31;;;;;;;84.10;45.67;;;3.80;99.90;;;;;;4924682;29;20955;-73
2021/12/23 17:29:59;;;;;;;89.37;45.50;;;3.80;99.90;;;;;;4929639;29;20509;-72
2021/12/23 17:32:26;;;;;;;96.10;48.50;;;3.80;99.90;;;;;;4930569;29;21106;-72
2021/12/23 17:34:56;;;;;;;85.90;46.50;;;3.80;99.90;;;;;;4931709;29;20528;-72
2021/12/23 17:37:23;;;;;;;70.73;40.97;;;3.80;99.90;;;;;;4936944;29;20458;-72
2021/12/23 17:39:51;;;;;;;66.67;37.30;;;3.90;99.90;;;;;;4935392;29;20494;-72
2021/12/23 17:42:17;;;;;;;65.10;35.83;;;3.90;99.90;;;;;;4936656;29;20474;-72
2021/12/23 17:44:44;;;;;;;72.60;37.57;;;3.90;99.90;;;;;;4936789;29;20572;-72
2021/12/23 17:47:12;;;;;;;62.80;35.47;;;3.90;99.90;;;;;;4936949;29;20846;-72
2021/12/23 17:49:39;;;;;;;55.43;32.73;;;4.00;99.90;;;;;;4936664;29;20483;-72
2021/12/23 17:52:07;;;;;;;54.43;30.70;;;4.00;99.90;;;;;;4936496;29;20584;-73
2021/12/23 17:54:36;;;;;;;56.90;30.70;;;4.00;99.90;;;;;;4936883;29;20488;-74
2021/12/23 17:57:03;;;;;;;52.13;31.03;;;4.00;99.90;;;;;;4936616;29;20497;-73
2021/12/23 17:59:30;;;;;;;50.57;30.10;;;4.00;99.90;;;;;;4935682;29;20494;-72
2021/12/23 18:01:57;;;;;;;54.97;29.80;;;4.00;99.90;;;;;;4935969;29;20858;-72
2021/12/23 18:04:27;;;;;;;52.20;30.93;;;4.00;99.90;;;;;;4936542;29;20557;-72
2021/12/23 18:06:55;;;;;;;54.33;32.60;;;4.00;99.90;;;;;;4936538;29;20556;-72
2021/12/23 18:09:24;;;;;;;59.40;33.37;;;4.00;99.90;;;;;;4935659;29;20461;-74
2021/12/23 18:11:51;;;;;;;51.37;31.67;;;4.00;99.90;;;;;;4936416;29;20557;-72
2021/12/23 18:14:18;;;;;;;57.43;32.20;;;4.00;99.90;;;;;;4936261;29;20522;-72
2021/12/23 18:16:45;;;;;;;46.23;30.97;;;4.00;99.90;;;;;;4936095;29;20891;-71
2021/12/23 18:19:12;;;;;;;54.07;31.60;;;4.10;99.90;;;;;;4935554;29;20529;-72
2021/12/23 18:21:39;;;;;;;54.37;31.27;;;4.00;99.90;;;;;;4936088;29;20963;-71
2021/12/23 18:24:07;;;;;;;47.90;30.07;;;4.00;99.90;;;;;;4936026;29;20532;-72
2021/12/23 18:26:35;;;;;;;55.20;32.53;;;4.10;99.90;;;;;;4935861;29;20541;-72
2021/12/23 18:29:03;;;;;;;55.67;32.20;;;4.00;99.90;;;;;;4935812;29;21071;-72
2021/12/23 18:31:31;;;;;;;58.17;33.53;;;4.00;99.90;;;;;;4935639;29;20540;-72
2021/12/23 18:33:58;;;;;;;61.70;35.20;;;4.00;99.90;;;;;;4936010;29;21028;-72
2021/12/23 18:36:30;;;;;;;61.13;34.13;;;4.00;99.90;;;;;;4936030;29;20533;-72
2021/12/23 18:38:59;;;;;;;61.30;34.93;;;4.00;99.90;;;;;;4935970;29;20457;-72
2021/12/23 18:41:32;;;;;;;60.73;34.57;;;4.00;99.90;;;;;;4935955;29;20449;-72
2021/12/23 18:44:02;;;;;;;58.87;33.37;;;3.90;99.90;;;;;;4936244;29;20486;-72
2021/12/23 18:46:30;;;;;;;53.17;31.13;;;3.90;99.90;;;;;;4935912;29;20468;-72